Frenchtown Township, Maine
Current Conditions -  °F | °C
As of 7:53 PM on Friday 21 Nov 2014 (Local Time) from KMLT Reporting Station
Clear Clear  
Wind Chill:   Ceiling: Unl
Heat Index: 20°   Visibility: 10mi
Dew Point:   Wind: 14mph
Humidity: 55%   Direction: 300°WNW
Pressure: 30.18"   Gusts: 21mph
Location:  45.7313°N, 69.33°W
Report Text: KMLT 220053Z AUTO 30012G18KT 10SM CLR M07/M14 A3018 RMK AO2 PK WND 30026/0019 SLP232 T10671144
Loading
Personal Weather Stations






























Interactive Weather Map New forecast layout! Learn more

10-Day Weather Forecast

Advertisements
Track Severe Weather on mobile